createdAt,value
2018-11-03T00:01:07.107Z,11.82
2018-11-03T00:03:40.125Z,11.77
2018-11-03T00:06:13.119Z,11.77
2018-11-03T00:08:46.142Z,11.74
2018-11-03T00:11:19.014Z,11.76
2018-11-03T00:13:51.972Z,11.77
2018-11-03T00:16:24.739Z,11.79
2018-11-03T00:18:57.710Z,11.75
2018-11-03T00:21:30.483Z,11.74
2018-11-03T00:24:03.437Z,11.74
2018-11-03T00:26:34.885Z,11.77
2018-11-03T00:29:07.908Z,11.75
2018-11-03T00:31:40.609Z,11.69
2018-11-03T00:34:13.442Z,11.70
2018-11-03T00:36:44.460Z,11.69
2018-11-03T00:39:15.452Z,11.67
2018-11-03T00:41:46.895Z,11.66
2018-11-03T00:44:19.614Z,11.65
2018-11-03T00:46:52.469Z,11.68
2018-11-03T00:49:23.472Z,11.70
2018-11-03T00:51:54.886Z,11.72
2018-11-03T00:54:27.620Z,11.75
2018-11-03T00:57:00.470Z,11.74
2018-11-03T00:59:31.655Z,11.74
2018-11-03T01:02:04.468Z,11.73
2018-11-03T01:04:35.723Z,11.71
2018-11-03T01:07:08.613Z,11.73
2018-11-03T01:09:41.429Z,11.73
2018-11-03T01:12:12.500Z,11.78
2018-11-03T01:14:45.420Z,11.71
2018-11-03T01:17:18.324Z,11.65
2018-11-03T01:19:51.256Z,11.60
2018-11-03T01:22:24.462Z,11.60
2018-11-03T01:24:55.642Z,11.64
2018-11-03T01:27:28.473Z,11.66
2018-11-03T01:30:01.408Z,11.66
2018-11-03T01:32:34.553Z,11.63
2018-11-03T01:35:05.732Z,11.58
2018-11-03T01:37:39.246Z,11.59
2018-11-03T01:40:14.430Z,11.59
2018-11-03T01:42:45.455Z,11.58
2018-11-03T01:45:16.703Z,11.58
2018-11-03T01:47:49.644Z,11.56
2018-11-03T01:50:22.614Z,11.56
2018-11-03T01:52:55.548Z,11.56
2018-11-03T01:55:27.052Z,11.52
2018-11-03T01:58:00.247Z,11.46
2018-11-03T02:00:33.255Z,11.42
2018-11-03T02:03:06.155Z,11.43
2018-11-03T02:05:39.116Z,11.42
2018-11-03T02:08:12.241Z,11.40
2018-11-03T02:10:45.102Z,11.40
2018-11-03T02:13:18.153Z,11.36
2018-11-03T02:15:51.144Z,11.36
2018-11-03T02:18:24.121Z,11.40
2018-11-03T02:20:57.124Z,11.34
2018-11-03T02:23:30.153Z,11.36
2018-11-03T02:26:03.117Z,11.36
2018-11-03T02:28:36.122Z,11.36
2018-11-03T02:31:09.164Z,11.35
2018-11-03T02:33:42.398Z,11.23
2018-11-03T02:36:15.498Z,11.23
2018-11-03T02:38:46.891Z,11.16
2018-11-03T02:41:19.625Z,11.14
2018-11-03T02:43:52.647Z,11.04
2018-11-03T02:46:25.507Z,10.99
2018-11-03T02:48:56.884Z,10.99
2018-11-03T02:51:29.610Z,11.01
2018-11-03T02:54:02.450Z,10.95
2018-11-03T02:56:33.884Z,10.95
2018-11-03T02:59:06.972Z,10.98
2018-11-03T03:01:40.294Z,10.99
2018-11-03T03:04:13.406Z,10.95
2018-11-03T03:06:46.386Z,10.88
2018-11-03T03:09:17.615Z,10.85
2018-11-03T03:11:50.489Z,10.81
2018-11-03T03:14:23.407Z,10.84
2018-11-03T03:16:54.478Z,10.86
2018-11-03T03:19:25.503Z,10.88
2018-11-03T03:21:56.914Z,10.87
2018-11-03T03:24:29.640Z,10.86
2018-11-03T03:27:02.616Z,10.83
2018-11-03T03:29:35.591Z,10.83
2018-11-03T03:32:06.896Z,10.83
2018-11-03T03:34:39.629Z,10.82
2018-11-03T03:37:12.631Z,10.80
2018-11-03T03:39:45.663Z,10.83
2018-11-03T03:42:18.487Z,10.84
2018-11-03T03:44:51.450Z,10.84
2018-11-03T03:47:22.610Z,10.86
2018-11-03T03:49:55.449Z,10.90
2018-11-03T03:52:26.500Z,10.91
2018-11-03T03:54:57.608Z,10.85
2018-11-03T03:57:30.465Z,10.79
2018-11-03T04:00:01.644Z,10.79
2018-11-03T04:02:34.502Z,10.80
2018-11-03T04:05:05.626Z,10.80
2018-11-03T04:07:38.761Z,10.84
2018-11-03T04:10:11.974Z,10.83
2018-11-03T04:12:44.924Z,10.83
2018-11-03T04:15:17.898Z,10.84
2018-11-03T04:17:50.714Z,10.86
2018-11-03T04:20:23.650Z,10.92
2018-11-03T04:22:56.495Z,10.84
2018-11-03T04:25:27.884Z,10.84
2018-11-03T04:28:00.663Z,10.82
2018-11-03T04:30:33.499Z,10.68
2018-11-03T04:33:04.666Z,10.68
2018-11-03T04:35:37.492Z,10.68
2018-11-03T04:38:10.419Z,10.68
2018-11-03T04:40:41.636Z,10.64
2018-11-03T04:43:14.499Z,10.61
2018-11-03T04:45:47.445Z,10.61
2018-11-03T04:48:20.353Z,10.67
2018-11-03T04:50:51.498Z,10.71
2018-11-03T04:53:24.421Z,10.74
2018-11-03T04:55:55.898Z,10.74
2018-11-03T04:58:28.780Z,10.69
2018-11-03T05:01:01.777Z,10.65
2018-11-03T05:03:35.643Z,10.65
2018-11-03T05:06:08.649Z,10.66
2018-11-03T05:08:41.495Z,10.66
2018-11-03T05:11:12.939Z,10.66
2018-11-03T05:13:45.833Z,10.67
2018-11-03T05:16:18.654Z,10.68
2018-11-03T05:18:51.500Z,10.66
2018-11-03T05:21:22.766Z,10.66
2018-11-03T05:23:55.492Z,10.71
2018-11-03T05:26:26.898Z,10.71
2018-11-03T05:28:59.771Z,10.73
2018-11-03T05:31:32.643Z,10.71
2018-11-03T05:34:05.491Z,10.60
2018-11-03T05:36:38.361Z,10.60
2018-11-03T05:39:13.551Z,10.62
2018-11-03T05:41:46.493Z,10.62
2018-11-03T05:44:17.624Z,10.68
2018-11-03T05:46:50.531Z,10.71
2018-11-03T05:49:23.507Z,10.71
2018-11-03T05:51:54.923Z,10.70
2018-11-03T05:54:27.650Z,10.70
2018-11-03T05:57:00.486Z,10.79
2018-11-03T05:59:31.903Z,10.79
2018-11-03T06:02:04.800Z,10.75
2018-11-03T06:04:37.979Z,10.73
2018-11-03T06:07:10.814Z,10.77
2018-11-03T06:09:43.619Z,10.83
2018-11-03T06:12:16.503Z,10.83
2018-11-03T06:14:49.412Z,10.85
2018-11-03T06:17:20.892Z,10.82
2018-11-03T06:19:53.740Z,10.82
2018-11-03T06:22:26.528Z,10.78
2018-11-03T06:24:57.852Z,10.78
2018-11-03T06:27:30.772Z,10.77
2018-11-03T06:30:03.635Z,10.86
2018-11-03T06:32:36.520Z,10.90
2018-11-03T06:35:08.430Z,10.90
2018-11-03T06:37:41.406Z,10.96
2018-11-03T06:40:12.919Z,11.00
2018-11-03T06:42:45.780Z,11.04
2018-11-03T06:45:18.633Z,11.09
2018-11-03T06:47:51.436Z,11.18
2018-11-03T06:50:23.089Z,11.21
2018-11-03T06:52:56.255Z,11.19
2018-11-03T06:55:29.121Z,11.14
2018-11-03T06:58:02.133Z,11.21
2018-11-03T07:00:35.249Z,11.40
2018-11-03T07:03:08.158Z,11.55
2018-11-03T07:05:41.094Z,11.55
2018-11-03T07:08:14.121Z,11.80
2018-11-03T07:10:47.143Z,11.91
2018-11-03T07:13:20.229Z,12.03
2018-11-03T07:15:53.158Z,12.11
2018-11-03T07:18:26.263Z,12.24
2018-11-03T07:20:59.362Z,12.23
2018-11-03T07:23:30.652Z,12.09
2018-11-03T07:26:03.525Z,12.08
2018-11-03T07:28:37.263Z,12.08
2018-11-03T07:31:10.395Z,12.09
2018-11-03T07:33:41.903Z,11.95
2018-11-03T07:36:17.620Z,11.95
2018-11-03T07:38:48.892Z,12.00
2018-11-03T07:41:21.730Z,12.04
2018-11-03T07:43:54.661Z,12.23
2018-11-03T07:46:27.559Z,12.25
2018-11-03T07:48:58.977Z,12.25
2018-11-03T07:51:31.969Z,12.24
2018-11-03T07:54:05.218Z,12.17
2018-11-03T07:56:38.124Z,12.06
2018-11-03T07:59:11.271Z,12.03
2018-11-03T08:01:44.400Z,12.02
2018-11-03T08:04:15.750Z,12.08
2018-11-03T08:06:48.623Z,11.87
2018-11-03T08:09:21.609Z,11.87
2018-11-03T08:11:54.485Z,11.81
2018-11-03T08:14:27.418Z,11.78
2018-11-03T08:16:58.451Z,11.76
2018-11-03T08:19:29.894Z,11.72
2018-11-03T08:24:19.682Z,11.78
2018-11-03T08:26:52.686Z,11.79
2018-11-03T08:29:25.636Z,11.80
2018-11-03T08:32:01.427Z,11.80
2018-11-03T08:34:32.724Z,11.80
2018-11-03T08:37:05.515Z,11.80
2018-11-03T08:39:36.901Z,11.86
2018-11-03T08:42:09.925Z,11.78
2018-11-03T08:44:42.935Z,11.67
2018-11-03T08:47:16.107Z,11.67
2018-11-03T08:49:49.172Z,11.67
2018-11-03T08:52:22.158Z,11.67
2018-11-03T08:54:55.173Z,11.68
2018-11-03T08:57:28.242Z,11.79
2018-11-03T09:00:01.296Z,11.75
2018-11-03T09:02:34.147Z,11.74
2018-11-03T09:05:07.263Z,11.79
2018-11-03T09:07:40.381Z,11.92
2018-11-03T09:10:15.269Z,12.04
2018-11-03T09:12:48.131Z,12.20
2018-11-03T09:15:21.355Z,12.29
2018-11-03T09:17:54.134Z,12.39
2018-11-03T09:20:27.266Z,12.55
2018-11-03T09:23:00.123Z,12.68
2018-11-03T09:25:33.254Z,12.84
2018-11-03T09:28:06.269Z,12.97
2018-11-03T09:30:39.380Z,13.18
2018-11-03T09:33:10.514Z,13.35
2018-11-03T09:35:41.620Z,13.38
2018-11-03T09:38:14.405Z,13.62
2018-11-03T09:40:45.697Z,13.65
2018-11-03T09:43:18.450Z,13.67
2018-11-03T09:45:49.669Z,13.69
2018-11-03T09:48:22.500Z,13.86
2018-11-03T09:50:55.424Z,13.86
2018-11-03T09:53:26.630Z,13.92
2018-11-03T09:55:59.462Z,13.98
2018-11-03T09:58:30.728Z,14.08
2018-11-03T10:01:03.664Z,14.31
2018-11-03T10:03:36.585Z,14.26
2018-11-03T10:06:09.459Z,14.26
2018-11-03T10:08:40.900Z,14.32
2018-11-03T10:11:13.786Z,14.28
2018-11-03T10:13:46.634Z,14.15
2018-11-03T10:16:19.519Z,14.05
2018-11-03T10:18:52.176Z,14.05
2018-11-03T10:21:25.159Z,13.99
2018-11-03T10:23:58.130Z,13.86
2018-11-03T10:26:31.307Z,13.86
2018-11-03T10:29:04.140Z,14.05
2018-11-03T10:31:37.115Z,14.13
2018-11-03T10:34:10.249Z,14.26
2018-11-03T10:36:43.131Z,14.55
2018-11-03T10:39:16.421Z,14.70
2018-11-03T10:41:47.656Z,14.62
2018-11-03T10:44:20.470Z,14.84
2018-11-03T10:46:53.403Z,14.84
2018-11-03T10:49:24.662Z,15.03
2018-11-03T10:51:57.442Z,15.10
2018-11-03T10:54:28.697Z,15.12
2018-11-03T10:57:01.702Z,15.15
2018-11-03T10:59:34.671Z,15.06
2018-11-03T11:02:24.458Z,15.06
2018-11-03T11:05:12.679Z,14.94
2018-11-03T11:08:02.582Z,14.95
2018-11-03T11:10:52.488Z,14.95
2018-11-03T11:13:28.424Z,15.04
2018-11-03T11:16:00.182Z,14.92
2018-11-03T11:18:33.133Z,14.81
2018-11-03T11:21:06.115Z,14.77
2018-11-03T11:23:39.276Z,14.71
2018-11-03T11:26:12.133Z,14.61
2018-11-03T11:28:45.130Z,14.59
2018-11-03T11:31:18.184Z,14.49
2018-11-03T11:33:51.569Z,14.54
2018-11-03T11:36:22.944Z,14.57
2018-11-03T11:38:55.635Z,14.64
2018-11-03T11:41:28.496Z,14.62
2018-11-03T11:44:01.448Z,14.62
2018-11-03T11:46:33.091Z,14.50
2018-11-03T11:49:06.257Z,14.47
2018-11-03T11:51:39.129Z,14.50
2018-11-03T11:54:12.256Z,14.58
2018-11-03T11:56:45.163Z,14.79
2018-11-03T11:59:18.118Z,14.79
2018-11-03T12:01:51.176Z,14.89
2018-11-03T12:04:24.104Z,14.91
2018-11-03T12:06:57.245Z,14.84
2018-11-03T12:09:30.412Z,14.88
2018-11-03T12:12:01.757Z,14.85
2018-11-03T12:15:27.647Z,14.54
2018-11-03T12:18:00.706Z,14.44
2018-11-03T12:20:33.430Z,14.44
2018-11-03T12:23:04.685Z,14.39
2018-11-03T12:25:37.867Z,14.33
2018-11-03T12:28:10.759Z,14.31
2018-11-03T12:30:44.239Z,14.31
2018-11-03T12:33:17.129Z,14.32
2018-11-03T12:35:50.232Z,14.30
2018-11-03T12:38:23.272Z,14.39
2018-11-03T12:43:27.896Z,14.25
2018-11-03T12:46:00.923Z,14.28
2018-11-03T12:48:33.813Z,14.19
2018-11-03T12:51:07.134Z,14.10
2018-11-03T12:53:40.260Z,14.05
2018-11-03T12:56:13.260Z,14.02
2018-11-03T12:58:46.153Z,13.93
2018-11-03T13:01:18.787Z,13.93
2018-11-03T13:03:51.648Z,13.99
2018-11-03T13:06:24.402Z,14.04
2018-11-03T13:08:55.902Z,14.02
2018-11-03T13:11:28.621Z,13.97
2018-11-03T13:14:01.468Z,13.96
2018-11-03T13:16:32.751Z,13.96
2018-11-03T13:19:05.524Z,13.96
2018-11-03T13:21:36.882Z,13.96
2018-11-03T13:24:09.898Z,13.83
2018-11-03T13:26:42.626Z,13.86
2018-11-03T13:29:15.449Z,13.78
2018-11-03T13:31:46.889Z,13.78
2018-11-03T13:34:19.729Z,13.73
2018-11-03T13:36:52.656Z,13.75
2018-11-03T13:39:25.397Z,13.75
2018-11-03T13:41:56.461Z,13.69
2018-11-03T13:44:27.892Z,13.69
2018-11-03T13:47:00.695Z,13.63
2018-11-03T13:49:33.468Z,13.53
2018-11-03T13:52:04.891Z,13.53
2018-11-03T13:54:37.633Z,13.53
2018-11-03T13:57:10.526Z,13.49
2018-11-03T13:59:41.476Z,13.49
2018-11-03T14:02:12.889Z,13.52
2018-11-03T14:04:45.645Z,13.44
2018-11-03T14:07:18.387Z,13.37
2018-11-03T14:09:51.400Z,13.42
2018-11-03T14:12:24.372Z,13.45
2018-11-03T14:14:57.456Z,13.49
2018-11-03T14:17:30.364Z,13.46
2018-11-03T14:20:03.137Z,13.44
2018-11-03T14:22:36.148Z,13.47
2018-11-03T14:25:11.974Z,13.51
2018-11-03T14:27:46.126Z,13.47
2018-11-03T14:30:19.101Z,13.48
2018-11-03T14:32:52.146Z,13.44
2018-11-03T14:35:25.105Z,13.38
2018-11-03T14:37:58.256Z,13.37
2018-11-03T14:40:31.110Z,13.31
2018-11-03T14:43:03.652Z,13.21
2018-11-03T14:45:34.897Z,13.21
2018-11-03T14:48:07.975Z,13.19
2018-11-03T14:51:05.640Z,13.23
2018-11-03T14:53:36.890Z,13.14
2018-11-03T14:56:09.614Z,13.09
2018-11-03T14:58:42.492Z,13.07
2018-11-03T15:01:14.245Z,13.02
2018-11-03T15:03:47.242Z,12.99
2018-11-03T15:06:20.385Z,12.97
2018-11-03T15:08:51.889Z,12.96
2018-11-03T15:11:25.194Z,12.95
2018-11-03T15:14:00.589Z,12.87
2018-11-03T15:16:31.886Z,12.84
2018-11-03T15:19:04.667Z,12.81
2018-11-03T15:21:37.642Z,12.78
2018-11-03T15:24:09.315Z,12.78
2018-11-03T15:26:42.406Z,12.75
2018-11-03T15:29:13.891Z,12.71
2018-11-03T15:31:47.094Z,12.69
2018-11-03T15:34:20.230Z,12.64
2018-11-03T15:36:53.389Z,12.61
2018-11-03T15:39:24.691Z,12.59
2018-11-03T15:41:57.611Z,12.41
2018-11-03T15:44:30.555Z,12.41
2018-11-03T15:47:02.250Z,12.40
2018-11-03T15:49:35.429Z,12.30
2018-11-03T15:52:08.540Z,12.28
2018-11-03T15:54:41.424Z,12.29
2018-11-03T15:57:14.426Z,12.18
2018-11-03T15:59:47.503Z,12.15
2018-11-03T16:02:20.417Z,12.18
2018-11-03T16:04:52.283Z,12.14
2018-11-03T16:07:25.468Z,12.08
2018-11-03T16:09:56.889Z,12.04
2018-11-03T16:12:29.805Z,12.01
2018-11-03T16:15:02.670Z,11.94
2018-11-03T16:17:35.680Z,12.02
2018-11-03T16:20:09.792Z,12.02
2018-11-03T16:22:43.014Z,12.02
2018-11-03T16:25:16.114Z,12.02
2018-11-03T16:27:49.146Z,12.07
2018-11-03T16:30:24.246Z,12.06
2018-11-03T16:32:58.244Z,12.06
2018-11-03T16:35:31.245Z,11.90
2018-11-03T16:38:04.227Z,11.90
2018-11-03T16:40:37.109Z,11.92
2018-11-03T16:43:10.401Z,11.92
2018-11-03T16:48:15.248Z,11.98
2018-11-03T16:50:49.439Z,12.02
2018-11-03T16:53:20.894Z,12.05
2018-11-03T16:55:53.648Z,12.04
2018-11-03T16:58:26.711Z,12.04
2018-11-03T17:00:59.619Z,12.06
2018-11-03T17:03:32.688Z,12.06
2018-11-03T17:06:05.918Z,12.00
2018-11-03T17:08:39.100Z,12.00
2018-11-03T17:11:12.160Z,12.04
2018-11-03T17:13:45.119Z,12.00
2018-11-03T17:16:19.125Z,11.99
2018-11-03T17:18:52.134Z,11.99
2018-11-03T17:21:25.253Z,12.02
2018-11-03T17:23:58.564Z,12.01
2018-11-03T17:26:31.451Z,11.99
2018-11-03T17:29:03.025Z,11.98
2018-11-03T17:31:36.352Z,12.00
2018-11-03T17:34:09.469Z,12.01
2018-11-03T17:36:42.495Z,12.02
2018-11-03T17:39:14.241Z,12.06
2018-11-03T17:41:48.225Z,11.98
2018-11-03T17:44:21.393Z,11.97
2018-11-03T17:46:55.394Z,11.96
2018-11-03T17:49:26.915Z,11.93
2018-11-03T17:52:00.111Z,11.98
2018-11-03T17:54:36.439Z,11.94
2018-11-03T17:57:08.048Z,11.98
2018-11-03T17:59:41.109Z,11.94
2018-11-03T18:02:15.242Z,11.85
2018-11-03T18:04:48.527Z,11.85
2018-11-03T18:07:21.473Z,11.87
2018-11-03T18:09:52.882Z,11.84
2018-11-03T18:12:25.631Z,11.87
2018-11-03T18:14:58.540Z,11.82
2018-11-03T18:17:31.968Z,11.80
2018-11-03T18:20:05.156Z,11.75
2018-11-03T18:22:39.475Z,11.79
2018-11-03T18:27:17.022Z,11.84
2018-11-03T18:29:50.251Z,11.85
2018-11-03T18:32:23.355Z,11.88
2018-11-03T18:34:56.508Z,11.89
2018-11-03T18:37:28.064Z,11.87
2018-11-03T18:40:01.542Z,11.81
2018-11-03T18:42:35.262Z,11.79
2018-11-03T18:45:09.286Z,11.80
2018-11-03T18:47:42.367Z,11.80
2018-11-03T18:50:16.361Z,11.74
2018-11-03T18:52:49.392Z,11.77
2018-11-03T18:55:22.395Z,11.77
2018-11-03T18:57:55.451Z,11.78
2018-11-03T19:00:26.888Z,11.84
2018-11-03T19:02:59.604Z,11.78
2018-11-03T19:05:30.895Z,11.75
2018-11-03T19:08:03.667Z,11.72
2018-11-03T19:10:36.504Z,11.77
2018-11-03T19:13:08.120Z,11.77
2018-11-03T19:15:41.256Z,11.78
2018-11-03T19:18:14.510Z,11.81
2018-11-03T19:20:45.897Z,11.80
2018-11-03T19:23:18.806Z,11.76
2018-11-03T19:25:51.819Z,11.77
2018-11-03T19:28:24.663Z,11.85
2018-11-03T19:30:57.434Z,11.81
2018-11-03T19:33:28.630Z,11.77
2018-11-03T19:36:01.493Z,11.91
2018-11-03T19:41:20.520Z,11.96
2018-11-03T19:43:53.370Z,11.84
2018-11-03T19:46:26.608Z,11.84
2018-11-03T19:49:00.750Z,11.87
2018-11-03T19:51:33.519Z,11.94
2018-11-03T19:54:06.733Z,11.94
2018-11-03T19:56:39.443Z,11.92
2018-11-03T19:59:11.256Z,11.96
2018-11-03T20:01:44.501Z,11.96
2018-11-03T20:04:17.232Z,11.90
2018-11-03T20:06:49.808Z,11.90
2018-11-03T20:09:22.528Z,11.84
2018-11-03T20:11:55.419Z,11.88
2018-11-03T20:14:28.420Z,11.87
2018-11-03T20:17:00.033Z,11.83
2018-11-03T20:19:33.146Z,11.86
2018-11-03T20:22:06.248Z,11.94
2018-11-03T20:24:39.479Z,12.00
2018-11-03T20:27:11.058Z,11.99
2018-11-03T20:29:44.193Z,11.99
2018-11-03T20:32:16.807Z,11.99
2018-11-03T20:34:49.534Z,11.97
2018-11-03T20:37:20.876Z,11.97
2018-11-03T20:39:53.652Z,12.02
2018-11-03T20:42:26.445Z,11.95
2018-11-03T20:44:57.656Z,11.95
2018-11-03T20:47:30.614Z,11.99
2018-11-03T20:50:03.513Z,12.05
2018-11-03T20:52:34.895Z,12.05
2018-11-03T20:55:08.156Z,12.12
2018-11-03T20:57:41.511Z,12.11
2018-11-03T21:00:16.315Z,12.14
2018-11-03T21:02:49.444Z,12.18
2018-11-03T21:05:22.427Z,12.15
2018-11-03T21:07:55.451Z,12.18
2018-11-03T21:10:28.135Z,12.23
2018-11-03T21:13:00.989Z,12.25
2018-11-03T21:15:33.684Z,12.25
2018-11-03T21:18:07.020Z,12.29
2018-11-03T21:22:14.497Z,12.22
2018-11-03T21:24:47.429Z,12.22
2018-11-03T21:27:19.019Z,12.29
2018-11-03T21:29:52.300Z,12.28
2018-11-03T21:32:25.424Z,12.25
2018-11-03T21:34:58.404Z,12.21
2018-11-03T21:37:29.720Z,12.13
2018-11-03T21:40:02.650Z,12.17
2018-11-03T21:42:35.675Z,12.21
2018-11-03T21:45:09.365Z,12.23
2018-11-03T21:47:42.408Z,12.23
2018-11-03T21:50:13.896Z,12.20
2018-11-03T21:52:47.140Z,12.26
2018-11-03T21:55:21.622Z,12.28
2018-11-03T21:57:54.657Z,12.31
2018-11-03T22:00:27.647Z,12.30
2018-11-03T22:03:00.674Z,12.24
2018-11-03T22:05:33.722Z,12.21
2018-11-03T22:08:06.728Z,12.17
2018-11-03T22:10:40.154Z,12.16
2018-11-03T22:13:13.249Z,12.16
2018-11-03T22:15:46.201Z,12.18
2018-11-03T22:18:19.250Z,12.21
2018-11-03T22:20:52.409Z,12.19
2018-11-03T22:23:23.892Z,12.17
2018-11-03T22:25:56.643Z,12.17
2018-11-03T22:28:29.664Z,12.21
2018-11-03T22:31:02.469Z,12.16
2018-11-03T22:33:33.671Z,12.16
2018-11-03T22:36:06.974Z,12.15
2018-11-03T22:38:39.817Z,12.15
2018-11-03T22:41:12.628Z,12.20
2018-11-03T22:43:45.549Z,12.03
2018-11-03T22:46:18.477Z,12.03
2018-11-03T22:48:49.630Z,11.94
2018-11-03T22:51:22.740Z,11.80
2018-11-03T22:53:55.516Z,11.71
2018-11-03T22:56:28.405Z,11.71
2018-11-03T22:59:01.462Z,11.66
2018-11-03T23:01:32.892Z,11.61
2018-11-03T23:04:05.622Z,11.58
2018-11-03T23:06:38.663Z,11.56
2018-11-03T23:09:11.652Z,11.50
2018-11-03T23:11:44.548Z,11.55
2018-11-03T23:14:17.435Z,11.55
2018-11-03T23:16:48.889Z,11.55
2018-11-03T23:19:21.645Z,11.57
2018-11-03T23:21:54.595Z,11.50
2018-11-03T23:24:27.545Z,11.50
2018-11-03T23:26:58.892Z,11.50
2018-11-03T23:29:31.960Z,11.46
2018-11-03T23:32:04.654Z,11.41
2018-11-03T23:34:37.479Z,11.33
2018-11-03T23:37:09.021Z,11.33
2018-11-03T23:39:42.141Z,11.27
2018-11-03T23:42:15.102Z,11.08
2018-11-03T23:44:48.132Z,11.08
2018-11-03T23:47:21.250Z,11.10
2018-11-03T23:49:54.134Z,11.05
2018-11-03T23:52:36.761Z,11.01
2018-11-03T23:55:09.646Z,10.86
2018-11-03T23:57:42.632Z,10.88
